Data for 06/14/2008

Time Sea-Level Adjusted Pressure Absolute Pressure Temperature Relative Humidity Dew Point   
(mb) (inHg) (mb) (inHg) (C) (F) (%) (C) (F)
00:05 1018 30.06 847 25.01 10.9 51.5 63 4.1 39.4
00:10 1018 30.06 847 25.01 10.6 51.2 63 3.9 39.1
00:15 1018 30.06 847 25.01 10.5 50.9 64 4 39.2
00:20 1018 30.06 847 25.01 10.3 50.6 64 3.9 39
00:25 1018 30.06 847 25.01 10.2 50.3 65 3.9 39
00:30 1018 30.06 847 25.01 10 50 65 3.8 38.9
00:35 1018 30.06 847 25.01 9.9 49.8 65 3.7 38.7
00:40 1018 30.06 847 25.01 9.8 49.7 65 3.7 38.6
00:45 1018 30.06 847 25.01 9.8 49.6 66 3.7 38.7
00:50 1018 30.06 847 25.01 9.7 49.4 66 3.6 38.4
00:55 1018 30.06 847 25.01 9.7 49.4 65 3.4 38.1
01:00 1018 30.06 847 25.01 9.8 49.6 64 3.4 38.1
01:05 1018 30.06 847 25.01 9.7 49.5 65 3.4 38.2
01:10 1018 30.06 847 25.01 9.7 49.4 65 3.3 38
01:15 1018 30.06 847 25.01 9.6 49.4 64 3.3 37.9
01:20 1018 30.06 847 25.01 9.6 49.3 64 3.2 37.8
01:25 1018 30.06 847 25.01 9.6 49.2 64 3.2 37.8
01:30 1018 30.06 847 25.01 9.5 49.2 64 3.2 37.7
01:35 1018 30.06 847 25.01 9.5 49 65 3.2 37.8
01:40 1018 30.06 847 25.01 9.3 48.8 65 3.2 37.7
01:45 1018 30.06 847 25.01 9.3 48.7 65 3.1 37.6
01:50 1018 30.06 847 25.01 9.3 48.7 65 3.1 37.6
01:55 1018 30.06 847 25.01 9.2 48.5 66 3.1 37.6
02:00 1018 30.06 847 25.01 9.1 48.3 66 3 37.5
02:05 1018 30.06 847 25.01 9 48.2 66 3.1 37.5
02:10 1018 30.06 847 25.01 9 48.1 66 3 37.4
02:15 1018 30.06 847 25.01 9 48.2 66 3 37.4
02:20 1018 30.06 847 25.01 9 48.1 66 2.9 37.3
02:25 1018 30.06 847 25.01 8.9 48 66 3 37.4
02:30 1018 30.06 847 25.01 8.8 47.8 66 2.9 37.3
02:35 1018 30.06 847 25.01 8.7 47.7 67 2.9 37.3
02:40 1018 30.06 847 25.01 8.7 47.6 67 2.9 37.2
02:45 1018 30.06 847 25.01 8.6 47.5 67 2.8 37.1
02:50 1018 30.06 847 25.01 8.6 47.5 67 2.8 37.1
02:55 1018 30.06 847 25.01 8.5 47.3 67 2.8 37.1
03:00 1018 30.06 847 25.01 8.4 47 68 2.8 37
03:05 1018 30.06 847 25.01 8.3 46.9 68 2.7 36.8
03:10 1018 30.06 847 25.01 8.4 47.1 67 2.7 36.8
03:15 1018 30.06 847 25.01 8.4 47.2 67 2.6 36.7
03:20 1018 30.06 847 25.01 8.5 47.4 67 2.7 36.9
03:25 1018 30.06 847 25.01 8.5 47.2 67 2.7 36.8
03:30 1018 30.06 847 25.01 8.4 47 67 2.7 36.9
03:35 1018 30.06 847 25.01 8.3 46.9 67 2.5 36.5
03:40 1018 30.06 847 25.01 8.3 47 67 2.6 36.7
03:45 1018 30.06 847 25.01 8.3 46.9 67 2.6 36.7
03:50 1018 30.06 847 25.01 8.1 46.6 68 2.5 36.5
03:55 1018 30.06 847 25.01 8.1 46.6 67 2.5 36.5
04:00 1018 30.06 847 25.01 8.3 47 66 2.3 36.2
04:05 1018 30.06 847 25.01 8.7 47.6 64 2.3 36.2
04:10 1018 30.06 847 25.01 8.8 47.8 64 2.4 36.3
04:15 1018 30.06 847 25.01 8.7 47.7 64 2.3 36.1
04:20 1018 30.06 847 25.01 8.8 47.8 64 2.3 36.1
04:25 1018 30.06 847 25.01 8.9 48.1 62 2.1 35.8
04:30 1018 30.06 847 25.01 9.3 48.7 60 2 35.6
04:35 1018 30.06 847 25.01 9.6 49.3 60 2.2 35.9
04:40 1018 30.06 847 25.01 9.7 49.4 59 2.2 36
04:45 1018 30.06 847 25.01 9.6 49.3 60 2.4 36.2
04:50 1018 30.06 847 25.01 9.5 49 61 2.3 36.1
04:55 1018 30.06 847 25.01 9.4 48.9 60 2.2 35.9
05:00 1018 30.06 847 25.01 9.6 49.2 59 1.9 35.5
05:05 1018 30.06 847 25.01 9.7 49.5 60 2.5 36.4
05:10 1018 30.06 847 25.01 9.2 48.6 61 2.1 35.8
05:15 1018 30.06 847 25.01 9.2 48.5 63 2.4 36.4
05:20 1018 30.06 847 25.01 9.1 48.5 62 2.2 36
05:25 1018 30.06 847 25.01 9.1 48.3 63 2.4 36.4
05:30 1018 30.06 847 25.01 9 48.2 63 2.4 36.4
05:35 1018 30.06 847 25.01 9.1 48.3 64 2.6 36.7
05:40 1018 30.06 847 25.01 9 48.1 65 2.7 36.9
05:45 1018 30.06 847 25.01 9.2 48.5 63 2.6 36.7
05:50 1018 30.06 847 25.01 9.3 48.8 64 2.9 37.2
05:55 1018 30.06 848 25.04 9.2 48.6 65 3.1 37.6
06:00 1018 30.06 848 25.04 9.1 48.4 66 3.1 37.6
06:05 1019 30.09 848 25.04 9.1 48.5 67 3.3 37.9
06:10 1019 30.09 848 25.04 9.2 48.5 66 3.3 37.9
06:15 1019 30.09 848 25.04 9.2 48.5 66 3.2 37.7
06:20 1019 30.09 848 25.04 9.4 49 65 3.3 38
06:25 1019 30.09 848 25.04 9.6 49.3 65 3.4 38.1
06:30 1019 30.09 848 25.04 9.7 49.5 65 3.6 38.4
06:35 1019 30.09 848 25.04 9.5 49 68 3.8 38.9
06:40 1019 30.09 848 25.04 9.2 48.5 69 3.7 38.7
06:45 1019 30.09 848 25.04 9.1 48.4 69 3.7 38.7
06:50 1019 30.09 848 25.04 9.1 48.3 68 3.5 38.3
06:55 1019 30.09 848 25.04 9.2 48.6 67 3.5 38.2
07:00 1019 30.09 848 25.04 9.3 48.7 67 3.4 38.2
07:05 1019 30.09 848 25.04 9.4 48.9 66 3.4 38.2
07:10 1019 30.09 848 25.04 9.7 49.4 65 3.6 38.4
07:15 1019 30.09 848 25.04 9.6 49.2 65 3.4 38
07:20 1019 30.09 848 25.04 9.7 49.5 64 3.3 38
07:25 1019 30.09 848 25.04 9.9 49.8 64 3.5 38.3
07:30 1019 30.09 848 25.04 9.9 49.8 63 3.3 38
07:35 1019 30.09 848 25.04 10 50 63 3.3 38
07:40 1019 30.09 848 25.04 10.1 50.1 64 3.5 38.3
07:45 1019 30.09 848 25.04 10.2 50.3 63 3.5 38.3
07:50 1019 30.09 848 25.04 10.7 51.3 61 3.6 38.5
07:55 1019 30.09 848 25.04 11.2 52.1 60 3.6 38.6
08:00 1019 30.09 848 25.04 11.6 52.9 58 3.8 38.8
08:05 1019 30.09 849 25.07 11.4 52.5 61 4.1 39.4
08:10 1019 30.09 849 25.07 11.6 52.9 60 4.3 39.7
08:15 1019 30.09 849 25.07 11.3 52.3 64 4.8 40.6
08:20 1019 30.09 849 25.07 11 51.8 62 4.1 39.4
08:25 1019 30.09 848 25.04 11.1 52.1 64 4.7 40.5
08:30 1019 30.09 848 25.04 11.3 52.3 63 4.4 40
08:35 1019 30.09 849 25.07 11.6 52.9 61 4.4 39.9
08:40 1019 30.09 849 25.07 12.4 54.3 55 3.7 38.6
08:45 1019 30.09 849 25.07 13.3 55.9 52 3.6 38.5
08:50 1019 30.09 849 25.07 13.9 57.1 48 3.2 37.7
08:55 1019 30.09 849 25.07 14.3 57.7 45 2.5 36.5
09:00 1019 30.09 849 25.07 14.5 58.1 44 2.5 36.5
09:05 1019 30.09 849 25.07 14.9 58.8 44 2.9 37.3
09:10 1019 30.09 849 25.07 15.6 60 41 2.5 36.5
09:15 1019 30.09 849 25.07 16.3 61.3 40 2.9 37.1
09:20 1019 30.09 849 25.07 16 60.7 43 3.5 38.3
09:25 1019 30.09 849 25.07 16.6 61.8 40 3 37.4
09:30 1019 30.09 849 25.07 17 62.6 39 3.2 37.8
09:35 1020 30.12 849 25.07 16.8 62.2 39 3 37.3
09:40 1020 30.12 849 25.07 17.2 63 38 3 37.3
09:45 1020 30.12 849 25.07 17.4 63.4 39 3.5 38.4
09:50 1020 30.12 849 25.07 17.4 63.3 40 3.6 38.5
09:55 1019 30.09 849 25.07 17.5 63.4 39 3.6 38.5
10:00 1019 30.09 849 25.07 17.2 62.9 41 3.9 38.9
10:05 1019 30.09 849 25.07 17.5 63.5 40 3.9 39
10:10 1019 30.09 849 25.07 18 64.4 39 3.9 39
10:15 1019 30.09 849 25.07 18.5 65.3 36 3.4 38.1
10:20 1019 30.09 849 25.07 17.9 64.2 37 3.3 37.9
10:25 1019 30.09 849 25.07 18.1 64.5 39 3.8 38.9
10:30 1019 30.09 849 25.07 18.4 65 38 3.9 38.9
10:35 1019 30.09 848 25.04 18.2 64.8 37 3.6 38.4
10:40 1019 30.09 849 25.07 18.1 64.6 38 3.7 38.6
10:45 1019 30.09 848 25.04 17.9 64.2 40 4.1 39.4
10:50 1019 30.09 848 25.04 18.1 64.7 38 3.6 38.4
10:55 1019 30.09 848 25.04 18.2 64.8 38 4 39.1
11:00 1019 30.09 849 25.07 18.3 65 38 3.8 38.9
11:05 1019 30.09 849 25.07 18.5 65.3 37 3.5 38.4
11:10 1019 30.09 849 25.07 18.7 65.6 35 3.1 37.5
11:15 1019 30.09 849 25.07 18.7 65.7 35 3.3 37.9
11:20 1019 30.09 849 25.07 18.8 65.8 36 3.5 38.3
11:25 1019 30.09 849 25.07 19.1 66.4 36 3.7 38.6
11:30 1019 30.09 849 25.07 19 66.2 36 3.5 38.4
11:35 1019 30.09 849 25.07 19.3 66.8 36 3.9 39
11:40 1019 30.09 849 25.07 19.1 66.3 37 4.1 39.4
11:45 1019 30.09 849 25.07 19.6 67.4 34 3.7 38.7
11:50 1019 30.09 849 25.07 19.3 66.7 35 3.7 38.6
11:55 1019 30.09 849 25.07 19.8 67.6 34 3.6 38.4
12:00 1019 30.09 848 25.04 20 67.9 33 3.5 38.2
12:05 1019 30.09 848 25.04 20.3 68.5 33 3.9 39
12:10 1019 30.09 848 25.04 20.2 68.3 34 3.8 38.9
12:15 1019 30.09 848 25.04 19.3 66.8 35 3.8 38.9
12:20 1019 30.09 848 25.04 18.9 66 35 3.1 37.6
12:25 1019 30.09 848 25.04 19.4 66.9 35 3.8 38.8
12:30 1019 30.09 848 25.04 20.2 68.4 34 4 39.2
12:35 1019 30.09 848 25.04 20.1 68.2 34 3.8 38.8
12:40 1019 30.09 848 25.04 20.5 68.9 33 3.8 38.8
12:45 1019 30.09 848 25.04 20.8 69.5 32 3.5 38.3
12:50 1019 30.09 848 25.04 20.5 68.9 33 4 39.2
12:55 1019 30.09 848 25.04 20.5 69 32 3.6 38.5
13:00 1019 30.09 848 25.04 20.9 69.6 33 4 39.3
13:05 1019 30.09 848 25.04 21.1 70.1 31 3.6 38.5
13:10 1019 30.09 848 25.04 20.6 69.1 32 3.7 38.7
13:15 1019 30.09 848 25.04 20.5 68.9 33 3.8 38.9
13:20 1019 30.09 848 25.04 20.6 69 33 3.7 38.7
13:25 1019 30.09 848 25.04 21.4 70.5 31 3.9 39.1
13:30 1019 30.09 848 25.04 21.8 71.2 30 3.7 38.6
13:35 1019 30.09 848 25.04 21 69.7 31 3.4 38.1
13:40 1019 30.09 848 25.04 21.4 70.5 28 2.2 36
13:45 1018 30.06 848 25.04 21.7 71.1 28 2.4 36.3
13:50 1018 30.06 848 25.04 21.7 71 26 1.5 34.8
13:55 1018 30.06 848 25.04 21.8 71.2 26 1.6 34.9
14:00 1018 30.06 848 25.04 22.1 71.8 25 1.5 34.7
14:05 1018 30.06 848 25.04 22.2 71.9 25 1.5 34.8
14:10 1018 30.06 848 25.04 22.1 71.9 25 1.5 34.7
14:15 1018 30.06 847 25.01 22.3 72.2 24 1.2 34.2
14:20 1018 30.06 847 25.01 22 71.6 25 1.4 34.5
14:25 1018 30.06 847 25.01 22.5 72.4 25 1.8 35.3
14:30 1018 30.06 847 25.01 22.8 73.1 24 1.5 34.8
14:35 1018 30.06 847 25.01 22.7 72.8 24 1.1 34.1
14:40 1018 30.06 847 25.01 22.5 72.6 24 1 33.8
14:45 1018 30.06 847 25.01 22.7 72.9 23 0.4 32.8
14:50 1018 30.06 847 25.01 23.2 73.8 22 0.6 33.1
14:55 1018 30.06 847 25.01 22.8 73 22 0 32
15:00 1018 30.06 847 25.01 23 73.5 22 0.4 32.8
15:05 1018 30.06 847 25.01 23.1 73.5 21 -0 31.9
15:10 1018 30.06 847 25.01 23.3 73.9 21 -0.1 31.8
15:15 1018 30.06 847 25.01 23 73.4 22 0.3 32.6
15:20 1018 30.06 847 25.01 23 73.5 21 -0.2 31.7
15:25 1018 30.06 847 25.01 23 73.3 21 -0.5 31.1
15:30 1018 30.06 847 25.01 22.7 72.9 22 -0.2 31.7
15:35 1018 30.06 847 25.01 22.5 72.6 21 -0.7 30.8
15:40 1018 30.06 847 25.01 22.6 72.6 21 -0.7 30.8
15:45 1018 30.06 847 25.01 22.8 73 21 -0.7 30.7
15:50 1018 30.06 847 25.01 23.1 73.6 21 -0.3 31.4
15:55 1018 30.06 847 25.01 22.9 73.2 21 -0.3 31.4
16:00 1018 30.06 847 25.01 22.9 73.3 20 -1.1 30.1
16:05 1018 30.06 847 25.01 23.2 73.8 20 -1 30.2
16:10 1018 30.06 847 25.01 23.5 74.3 20 -0.6 31
16:15 1018 30.06 847 25.01 23.9 75 19 -1 30.3
16:20 1017 30.03 847 25.01 23.8 74.8 19 -0.8 30.6
16:25 1018 30.06 847 25.01 23.9 75 19 -1.1 30
16:30 1017 30.03 847 25.01 23.7 74.6 20 -0.6 31
16:35 1017 30.03 847 25.01 23.5 74.4 19 -1.3 29.6
16:40 1017 30.03 847 25.01 23.3 74 19 -1.2 29.9
16:45 1017 30.03 847 25.01 23.1 73.6 20 -1.2 29.9
16:50 1017 30.03 847 25.01 23.1 73.7 19 -1.5 29.4
16:55 1017 30.03 847 25.01 23.5 74.3 18 -1.7 28.9
17:00 1017 30.03 847 25.01 23.6 74.5 18 -1.5 29.3
17:05 1017 30.03 847 25.01 23.5 74.2 19 -1.2 29.8
17:10 1017 30.03 847 25.01 23.5 74.2 18 -1.9 28.6
17:15 1017 30.03 846 24.98 22.8 73 19 -1.9 28.6
17:20 1017 30.03 847 25.01 22.4 72.3 20 -1.7 29
17:25 1017 30.03 847 25.01 22.3 72.1 20 -1.7 28.9
17:30 1017 30.03 846 24.98 23.1 73.5 18 -2.2 28.1
17:35 1017 30.03 846 24.98 22.9 73.2 19 -1.8 28.8
17:40 1017 30.03 846 24.98 22.7 72.8 19 -1.9 28.6
17:45 1017 30.03 847 25.01 22.8 73 19 -2 28.4
17:50 1017 30.03 847 25.01 22.5 72.5 19 -2.4 27.8
17:55 1017 30.03 847 25.01 22.3 72.2 19 -2.6 27.4
18:00 1017 30.03 847 25.01 22.8 73 18 -2.3 27.8
18:05 1017 30.03 847 25.01 22.2 71.9 19 -2.2 28
18:10 1017 30.03 847 25.01 21.6 70.9 20 -2.3 27.8
18:15 1017 30.03 847 25.01 22.3 72.2 19 -2 28.4
18:20 1017 30.03 847 25.01 22.8 73 18 -2.7 27.1
18:25 1017 30.03 847 25.01 22.5 72.5 18 -3.1 26.5
18:30 1017 30.03 847 25.01 22.7 72.8 18 -2.8 26.9
18:35 1017 30.03 847 25.01 22.7 72.8 18 -2.9 26.7
18:40 1017 30.03 847 25.01 22.8 73.1 18 -2.7 27.1
18:45 1017 30.03 847 25.01 22.6 72.6 18 -3.1 26.5
18:50 1017 30.03 847 25.01 22.2 72 18 -3.1 26.5
18:55 1017 30.03 847 25.01 22.2 72 19 -2.6 27.3
19:00 1017 30.03 847 25.01 22.2 72 18 -3.1 26.4
19:05 1017 30.03 847 25.01 21.9 71.5 18 -3.4 25.9
19:10 1018 30.06 847 25.01 22.2 71.9 18 -3.4 25.8
19:15 1018 30.06 847 25.01 22.1 71.8 18 -2.8 27
19:20 1018 30.06 847 25.01 22.2 72 20 -2 28.5
19:25 1018 30.06 847 25.01 22.2 71.9 19 -2.2 28.1
19:30 1018 30.06 847 25.01 21.7 71 21 -1.7 28.9
19:35 1018 30.06 847 25.01 21 69.9 21 -1.7 29
19:40 1018 30.06 847 25.01 20.8 69.5 21 -1.9 28.6
19:45 1018 30.06 847 25.01 20.7 69.3 21 -2.5 27.5
19:50 1018 30.06 847 25.01 20.5 69 21 -2.5 27.5
19:55 1018 30.06 847 25.01 20.5 68.8 20 -2.9 26.8
20:00 1018 30.06 847 25.01 20.4 68.7 21 -2.6 27.3
20:05 1018 30.06 847 25.01 20.5 68.9 21 -2.3 27.8
20:10 1018 30.06 847 25.01 20.5 68.8 22 -2 28.4
20:15 1018 30.06 847 25.01 20.3 68.6 22 -1.9 28.6
20:20 1018 30.06 847 25.01 20.1 68.2 24 -1.2 29.8
20:25 1018 30.06 847 25.01 20.1 68.2 24 -0.9 30.4
20:30 1018 30.06 847 25.01 20 68 25 -0.6 30.8
20:35 1018 30.06 847 25.01 19.9 67.8 26 -0.1 31.8
20:40 1018 30.06 847 25.01 19.7 67.5 27 0.2 32.4
20:45 1018 30.06 847 25.01 19.5 67 28 0.7 33.2
20:50 1018 30.06 847 25.01 19.2 66.5 29 0.7 33.3
20:55 1018 30.06 847 25.01 19 66.1 29 0.8 33.4
21:00 1018 30.06 848 25.04 18.8 65.8 30 0.8 33.4
21:05 1018 30.06 848 25.04 18.6 65.6 29 0.6 33
21:10 1018 30.06 848 25.04 18.4 65.2 30 0.7 33.3
21:15 1018 30.06 848 25.04 18.2 64.7 31 0.9 33.7
21:20 1018 30.06 848 25.04 17.8 64.1 32 1.2 34.2
21:25 1019 30.09 848 25.04 17.6 63.7 33 1.2 34.2
21:30 1019 30.09 848 25.04 17.4 63.3 33 1.2 34.1
21:35 1019 30.09 848 25.04 17.2 63 34 1.4 34.5
21:40 1019 30.09 848 25.04 17.1 62.7 34 1.2 34.2
21:45 1019 30.09 848 25.04 16.9 62.4 34 1.1 34.1
21:50 1019 30.09 848 25.04 16.6 62 35 1.3 34.4
21:55 1019 30.09 848 25.04 16.4 61.6 36 1.6 34.8
22:00 1019 30.09 848 25.04 15.9 60.6 45 3.9 39.1
22:05 1019 30.09 848 25.04 14.7 58.4 51 4.7 40.5
22:10 1019 30.09 848 25.04 14 57.2 52 4.5 40.1
22:15 1019 30.09 848 25.04 13.5 56.2 56 5 41
22:20 1019 30.09 848 25.04 13.3 55.9 55 4.5 40.1
22:25 1019 30.09 849 25.07 12.8 55.1 58 4.8 40.6
22:30 1019 30.09 849 25.07 12.3 54.2 59 4.6 40.3
22:35 1020 30.12 849 25.07 12.1 53.8 56 3.8 38.8
22:40 1020 30.12 849 25.07 12.4 54.4 54 3.4 38.2
22:45 1020 30.12 849 25.07 12.6 54.7 53 3.4 38.1
22:50 1020 30.12 849 25.07 12.6 54.7 52 3.1 37.6
22:55 1020 30.12 849 25.07 12.6 54.7 52 3 37.4
23:00 1020 30.12 849 25.07 12.3 54.2 54 3.4 38.1
23:05 1020 30.12 849 25.07 11.9 53.4 56 3.4 38.1
23:10 1020 30.12 849 25.07 11.5 52.8 57 3.3 37.9
23:15 1020 30.12 849 25.07 11.3 52.4 58 3.3 37.9
23:20 1020 30.12 849 25.07 11 51.7 58 3.1 37.5
23:25 1020 30.12 849 25.07 10.7 51.3 59 3 37.4
23:30 1020 30.12 849 25.07 10.7 51.3 59 3.1 37.5
23:35 1020 30.12 849 25.07 10.4 50.7 61 3.2 37.8
23:40 1020 30.12 849 25.07 10.1 50.2 62 3.1 37.6
23:45 1020 30.12 849 25.07 10.1 50.1 61 3 37.4
23:50 1020 30.12 849 25.07 10.1 50.1 60 2.7 36.8
23:55 1020 30.12 849 25.07 10.1 50.2 59 2.6 36.6
24:00 1020 30.12 849 25.07 10.1 50.2 57 2.1 35.9